Time;durP1;ratioP1;P1;durP2;ratioP2;P2;SDS_P1;SDS_P2;PMS_P1;PMS_P2;Temp;Humidity;BMP_temperature;BMP_pressure;BME280_temperature;BME280_humidity;BME280_pressure;Samples;Min_cycle;Max_cycle;Signal;HPM_P1;HPM_P2
2023/12/08 00:01:54;;;;;;;60.63;36.22;;;;;;;3.66;66.71;100249.88;4451846;32;34626;-78
2023/12/08 00:04:27;;;;;;;54.25;34.15;;;;;;;3.45;67.30;100254.94;4451570;32;34709;-79
2023/12/08 00:06:56;;;;;;;64.72;38.05;;;;;;;3.52;67.45;100262.59;4436837;32;33967;-78
2023/12/08 00:09:27;;;;;;;62.08;36.67;;;;;;;3.42;67.73;100262.91;4452214;32;34248;-79
2023/12/08 00:11:57;;;;;;;61.45;34.63;;;;;;;3.51;67.45;100264.34;4451598;32;35348;-78
2023/12/08 00:14:27;;;;;;;61.42;35.75;;;;;;;3.62;66.99;100251.75;4449511;32;33681;-78
2023/12/08 00:17:02;;;;;;;64.57;38.63;;;;;;;3.49;67.28;100260.09;4451671;32;33948;-78
2023/12/08 00:19:34;;;;;;;61.40;37.30;;;;;;;3.56;67.06;100269.44;4437590;32;31644;-79
2023/12/08 00:22:03;;;;;;;61.85;36.00;;;;;;;3.41;67.56;100276.06;4451165;32;34485;-78
2023/12/08 00:24:33;;;;;;;60.42;37.58;;;;;;;3.55;67.11;100272.97;4437688;32;32551;-79
2023/12/08 00:27:02;;;;;;;57.62;36.50;;;;;;;3.48;67.11;100263.59;4451422;32;34425;-78
2023/12/08 00:29:32;;;;;;;61.97;35.75;;;;;;;3.40;67.29;100262.09;4451532;32;34223;-79
2023/12/08 00:32:02;;;;;;;62.35;34.88;;;;;;;3.44;67.01;100268.09;4451477;32;34153;-79
2023/12/08 00:34:34;;;;;;;53.85;34.13;;;;;;;3.33;67.17;100267.63;4449418;32;35518;-79
2023/12/08 00:37:05;;;;;;;65.37;34.85;;;;;;;3.35;67.12;100273.63;4450919;32;34035;-78
2023/12/08 00:39:34;;;;;;;50.50;32.67;;;;;;;3.26;67.25;100279.19;4451929;32;33349;-78
2023/12/08 00:42:04;;;;;;;56.53;33.65;;;;;;;3.29;67.17;100282.56;4451140;32;34085;-78
2023/12/08 00:44:34;;;;;;;55.40;33.55;;;;;;;3.15;67.35;100280.41;4451280;32;34036;-78
2023/12/08 00:47:04;;;;;;;56.35;35.30;;;;;;;3.37;66.87;100284.94;4450785;32;34281;-78
2023/12/08 00:49:35;;;;;;;61.60;33.08;;;;;;;3.35;66.64;100278.88;4451602;32;34425;-78
2023/12/08 00:52:05;;;;;;;57.45;33.05;;;;;;;3.35;66.66;100282.34;4451117;32;33694;-78
2023/12/08 00:54:35;;;;;;;48.92;31.73;;;;;;;3.35;66.61;100290.22;4449394;32;34110;-78
2023/12/08 00:57:05;;;;;;;52.17;32.15;;;;;;;3.47;65.97;100295.94;4450870;32;33858;-78
2023/12/08 00:59:34;;;;;;;54.45;32.85;;;;;;;3.65;65.26;100293.56;4451299;32;33293;-78
2023/12/08 01:02:06;;;;;;;51.10;32.10;;;;;;;3.23;66.40;100295.00;4450890;32;34662;-78
2023/12/08 01:04:37;;;;;;;57.95;32.15;;;;;;;3.20;66.79;100296.81;4451211;32;33972;-78
2023/12/08 01:07:06;;;;;;;52.05;29.67;;;;;;;3.17;66.84;100302.16;4450662;32;34592;-78
2023/12/08 01:09:35;;;;;;;52.20;30.95;;;;;;;3.29;66.69;100298.28;4444879;32;33425;-78
2023/12/08 01:12:05;;;;;;;53.58;29.37;;;;;;;3.09;67.01;100295.44;4450763;32;33755;-78
2023/12/08 01:14:35;;;;;;;47.20;29.73;;;;;;;2.95;67.61;100296.75;4448863;32;33946;-78
2023/12/08 01:17:05;;;;;;;49.78;29.48;;;;;;;2.97;67.53;100288.84;4450497;32;34033;-78
2023/12/08 01:19:38;;;;;;;45.75;28.40;;;;;;;3.16;66.90;100294.34;4450802;32;33557;-78
2023/12/08 01:22:07;;;;;;;43.55;27.48;;;;;;;3.22;66.41;100301.16;4450867;32;35322;-78
2023/12/08 01:24:39;;;;;;;45.60;29.20;;;;;;;3.01;67.12;100303.56;4436841;32;34015;-78
2023/12/08 01:27:08;;;;;;;42.33;25.98;;;;;;;3.08;66.98;100307.66;4450350;32;48986;-78
2023/12/08 01:29:37;;;;;;;38.65;24.92;;;;;;;2.89;67.58;100314.38;4450816;32;34961;-78
2023/12/08 01:32:10;;;;;;;47.38;27.10;;;;;;;2.93;67.48;100310.78;4450603;32;33887;-78
2023/12/08 01:34:40;;;;;;;44.67;27.37;;;;;;;3.14;67.34;100314.50;4448694;32;33572;-78
2023/12/08 01:37:09;;;;;;;39.30;25.02;;;;;;;2.93;68.11;100309.03;4450244;32;34264;-78
2023/12/08 01:39:38;;;;;;;39.85;25.92;;;;;;;3.07;67.89;100302.50;4450969;32;35108;-78
2023/12/08 01:42:07;;;;;;;38.45;24.85;;;;;;;3.17;67.67;100311.78;4450357;32;49165;-78
2023/12/08 01:44:39;;;;;;;30.85;22.50;;;;;;;3.05;67.78;100313.03;4450542;32;33945;-78
2023/12/08 01:47:09;;;;;;;38.55;25.33;;;;;;;3.06;67.93;100303.41;4450215;32;34067;-78
2023/12/08 01:49:41;;;;;;;39.13;25.62;;;;;;;3.10;67.81;100299.78;4444454;32;33076;-78
2023/12/08 01:52:14;;;;;;;35.03;24.40;;;;;;;2.95;68.45;100294.13;4450151;32;33772;-78
2023/12/08 01:54:43;;;;;;;36.67;22.90;;;;;;;3.14;68.05;100297.00;4448751;32;34314;-78
2023/12/08 01:57:12;;;;;;;32.90;23.42;;;;;;;3.50;66.90;100291.47;4452578;32;33883;-78
2023/12/08 01:59:41;;;;;;;31.35;22.25;;;;;;;3.17;67.55;100290.84;4452532;32;33726;-78
2023/12/08 02:02:11;;;;;;;36.65;25.00;;;;;;;3.28;67.16;100287.84;4452635;32;34736;-78
2023/12/08 02:04:44;;;;;;;32.67;21.02;;;;;;;2.99;67.90;100287.03;4452527;32;34906;-78
2023/12/08 02:07:14;;;;;;;33.63;22.92;;;;;;;2.88;68.38;100289.97;4452070;32;34015;-78
2023/12/08 02:09:43;;;;;;;31.90;21.75;;;;;;;3.18;67.70;100284.69;4452676;32;33250;-78
2023/12/08 02:12:13;;;;;;;33.38;22.73;;;;;;;2.93;68.23;100288.09;4452593;32;34375;-78
2023/12/08 02:14:43;;;;;;;31.92;21.67;;;;;;;3.02;68.29;100288.72;4449969;32;33999;-78
2023/12/08 02:17:17;;;;;;;34.97;20.25;;;;;;;3.04;68.24;100285.13;4452247;32;34641;-78
2023/12/08 02:19:48;;;;;;;30.15;20.52;;;;;;;3.08;68.04;100284.09;4452471;32;33465;-78
2023/12/08 02:22:18;;;;;;;29.45;20.12;;;;;;;2.99;68.18;100286.19;4452116;32;33900;-78
2023/12/08 02:24:49;;;;;;;31.95;19.98;;;;;;;3.17;67.43;100290.84;4452269;32;33993;-78
2023/12/08 02:27:21;;;;;;;27.08;19.48;;;;;;;2.77;68.90;100285.97;4452573;32;33956;-78
2023/12/08 02:29:50;;;;;;;26.12;18.65;;;;;;;2.38;70.00;100284.56;4452238;32;34406;-78
2023/12/08 02:32:26;;;;;;;30.98;22.13;;;;;;;2.43;70.07;100287.03;4452206;32;34024;-78
2023/12/08 02:35:01;;;;;;;32.60;21.30;;;;;;;2.72;68.72;100281.75;4450264;32;34477;-78
2023/12/08 02:37:35;;;;;;;28.73;22.10;;;;;;;2.88;68.34;100281.28;4451980;32;34205;-78
2023/12/08 02:40:08;;;;;;;32.65;20.95;;;;;;;2.72;68.78;100276.53;4452254;32;33407;-78
2023/12/08 02:42:37;;;;;;;;;;;;;;;2.50;69.62;100287.72;4453116;32;33602;-78
2023/12/08 02:45:08;;;;;;;29.90;20.45;;;;;;;2.85;68.33;100295.34;4452268;32;48832;-78
2023/12/08 02:47:37;;;;;;;32.70;19.70;;;;;;;2.84;68.55;100290.12;4451841;32;34060;-78
2023/12/08 02:50:07;;;;;;;28.90;19.25;;;;;;;3.02;67.77;100286.94;4452213;32;33748;-78
2023/12/08 02:52:38;;;;;;;27.85;20.23;;;;;;;2.53;69.33;100298.06;4451983;32;34786;-78
2023/12/08 02:55:11;;;;;;;25.70;18.90;;;;;;;1.76;72.12;100302.84;4449949;32;33844;-78
2023/12/08 02:57:41;;;;;;;26.27;17.27;;;;;;;1.94;71.62;100291.91;4451952;32;34376;-77
2023/12/08 03:00:11;;;;;;;25.55;17.77;;;;;;;2.25;70.64;100290.16;4452883;32;33676;-78
2023/12/08 03:02:40;;;;;;;26.17;18.62;;;;;;;2.60;69.69;100289.97;4451977;32;34101;-78
2023/12/08 03:05:10;;;;;;;26.17;18.62;;;;;;;2.68;69.41;100287.97;4452000;32;34910;-78
2023/12/08 03:07:39;;;;;;;27.00;19.00;;;;;;;2.93;68.89;100289.84;4451896;32;33968;-78
2023/12/08 03:10:14;;;;;;;25.88;18.55;;;;;;;2.95;68.57;100291.50;4451739;32;33611;-77
2023/12/08 03:12:44;;;;;;;29.30;20.05;;;;;;;2.83;69.02;100289.28;4452004;32;34103;-78
2023/12/08 03:15:13;;;;;;;26.27;18.48;;;;;;;2.97;68.62;100281.00;4450340;32;34004;-78
2023/12/08 03:17:44;;;;;;;27.80;19.50;;;;;;;3.17;67.80;100282.97;4451478;32;34225;-78
2023/12/08 03:20:13;;;;;;;30.50;19.52;;;;;;;2.92;67.95;100280.28;4452080;32;33736;-78
2023/12/08 03:22:42;;;;;;;31.83;22.40;;;;;;;2.37;69.45;100292.41;4437732;32;34844;-78
2023/12/08 03:25:11;;;;;;;32.10;20.67;;;;;;;2.18;69.87;100292.97;4437577;32;33170;-78
2023/12/08 03:27:42;;;;;;;34.30;22.55;;;;;;;2.47;69.52;100288.66;4451575;32;33590;-78
2023/12/08 03:30:13;;;;;;;28.80;20.37;;;;;;;2.10;70.27;100284.50;4452251;32;34045;-78
2023/12/08 03:32:43;;;;;;;33.63;21.45;;;;;;;2.18;70.11;100292.13;4451881;32;34431;-78
2023/12/08 03:35:12;;;;;;;35.80;22.02;;;;;;;2.25;69.81;100295.41;4449604;32;33807;-78
2023/12/08 03:37:41;;;;;;;30.17;20.60;;;;;;;2.28;69.28;100293.56;4451678;32;33503;-78
2023/12/08 03:40:12;;;;;;;32.72;22.23;;;;;;;2.76;68.06;100285.13;4452130;32;35005;-78
2023/12/08 03:42:42;;;;;;;33.08;21.95;;;;;;;2.90;67.32;100282.09;4451604;32;34562;-78
2023/12/08 03:45:12;;;;;;;39.65;22.62;;;;;;;2.61;67.92;100286.47;4452148;32;34851;-78
2023/12/08 03:47:41;;;;;;;35.65;21.10;;;;;;;2.81;67.39;100287.59;4451718;32;34046;-78
2023/12/08 03:50:10;;;;;;;34.15;23.27;;;;;;;2.77;67.29;100284.22;4451409;32;33769;-78
2023/12/08 03:52:40;;;;;;;34.95;22.13;;;;;;;2.86;66.57;100278.72;4451681;32;34505;-78
2023/12/08 03:55:09;;;;;;;31.70;20.77;;;;;;;2.48;67.32;100282.50;4449880;32;34938;-78
2023/12/08 03:57:39;;;;;;;34.22;21.27;;;;;;;2.78;66.49;100274.63;4452033;32;34244;-78
2023/12/08 04:00:11;;;;;;;35.70;21.95;;;;;;;2.69;66.67;100276.62;4451350;32;50142;-78
2023/12/08 04:02:41;;;;;;;30.98;20.40;;;;;;;2.56;67.13;100270.06;4451850;32;33826;-77
2023/12/08 04:05:11;;;;;;;32.20;22.70;;;;;;;2.73;66.84;100272.13;4451720;32;33609;-77
2023/12/08 04:07:40;;;;;;;29.55;19.45;;;;;;;2.73;66.87;100274.75;4451258;32;33768;-78
2023/12/08 04:10:10;;;;;;;32.63;20.62;;;;;;;2.89;66.49;100278.63;4451523;32;33453;-78
2023/12/08 04:12:40;;;;;;;29.52;20.25;;;;;;;2.90;66.46;100279.47;4451989;32;34570;-78
2023/12/08 04:15:11;;;;;;;31.08;19.62;;;;;;;2.51;67.85;100276.34;4449331;32;48195;-77
2023/12/08 04:17:40;;;;;;;30.37;20.65;;;;;;;2.57;67.89;100263.06;4450607;32;34154;-78
2023/12/08 04:20:11;;;;;;;33.78;20.60;;;;;;;2.91;67.23;100266.34;4451592;32;33661;-78
2023/12/08 04:22:43;;;;;;;29.27;20.40;;;;;;;2.90;67.30;100262.00;4451317;32;34742;-78
2023/12/08 04:25:13;;;;;;;30.48;20.45;;;;;;;2.83;67.78;100257.03;4451482;32;33765;-78
2023/12/08 04:27:43;;;;;;;30.77;20.80;;;;;;;2.91;67.78;100252.41;4451242;32;34056;-78
2023/12/08 04:30:14;;;;;;;40.70;24.63;;;;;;;2.51;68.89;100243.19;4451464;32;34259;-78
2023/12/08 04:32:43;;;;;;;51.75;29.52;;;;;;;2.65;68.79;100245.34;4451287;32;33996;-78
2023/12/08 04:35:12;;;;;;;32.05;21.67;;;;;;;2.61;69.16;100249.88;4449439;32;35382;-78
2023/12/08 04:37:41;;;;;;;28.27;20.52;;;;;;;2.95;68.28;100249.63;4451066;32;34268;-78
2023/12/08 04:40:12;;;;;;;30.75;19.23;;;;;;;2.89;68.58;100255.06;4451359;32;33401;-78
2023/12/08 04:42:41;;;;;;;26.52;18.92;;;;;;;2.82;68.79;100242.22;4451540;32;33665;-78
2023/12/08 04:45:14;;;;;;;27.73;18.42;;;;;;;2.91;68.53;100241.94;4451667;32;33973;-78
2023/12/08 04:47:44;;;;;;;25.88;19.52;;;;;;;3.01;68.34;100235.50;4450856;32;33579;-78
2023/12/08 04:50:14;;;;;;;25.50;19.02;;;;;;;3.18;67.93;100237.56;4436967;32;32151;-78
2023/12/08 04:52:43;;;;;;;29.30;21.52;;;;;;;3.09;68.25;100230.87;4451159;32;34123;-78
2023/12/08 04:55:12;;;;;;;35.13;23.08;;;;;;;3.19;68.01;100227.00;4448790;32;33573;-78
2023/12/08 04:57:41;;;;;;;32.55;23.90;;;;;;;3.32;67.54;100232.69;4450949;32;34615;-78
2023/12/08 05:00:12;;;;;;;32.47;22.55;;;;;;;3.39;67.30;100228.09;4437256;32;32926;-78
2023/12/08 05:02:42;;;;;;;26.20;19.95;;;;;;;3.19;67.74;100239.25;4450999;32;34085;-78
2023/12/08 05:05:14;;;;;;;27.02;18.50;;;;;;;3.18;67.57;100242.78;4451041;32;34036;-78
2023/12/08 05:07:43;;;;;;;26.98;18.73;;;;;;;3.31;67.18;100236.22;4436618;32;34326;-78
2023/12/08 05:10:13;;;;;;;28.50;19.15;;;;;;;3.26;67.28;100245.16;4450571;32;34393;-78
2023/12/08 05:12:42;;;;;;;24.73;17.95;;;;;;;3.14;67.56;100252.50;4450975;32;33888;-78
2023/12/08 05:15:11;;;;;;;24.95;17.40;;;;;;;3.24;67.25;100250.41;4449278;32;33956;-78
2023/12/08 05:17:42;;;;;;;23.40;17.60;;;;;;;3.47;66.48;100254.03;4450562;32;33890;-77
2023/12/08 05:20:13;;;;;;;22.42;15.38;;;;;;;3.25;66.80;100252.16;4450712;32;33231;-78
2023/12/08 05:22:43;;;;;;;21.15;15.77;;;;;;;3.23;67.06;100251.34;4450866;32;33956;-78
2023/12/08 05:25:13;;;;;;;24.00;18.58;;;;;;;3.36;66.82;100262.25;4450667;32;34208;-78
2023/12/08 05:27:44;;;;;;;23.95;16.15;;;;;;;3.16;67.41;100261.16;4450491;32;34191;-78
2023/12/08 05:30:13;;;;;;;22.73;15.52;;;;;;;3.22;67.27;100267.13;4451978;32;34180;-78
2023/12/08 05:32:44;;;;;;;22.02;16.48;;;;;;;3.33;66.96;100265.00;4452795;32;33903;-78
2023/12/08 05:35:14;;;;;;;19.58;13.52;;;;;;;3.29;66.92;100266.00;4450440;32;34839;-78
2023/12/08 05:37:42;;;;;;;23.30;15.57;;;;;;;3.24;67.11;100265.28;4452431;32;33682;-78
2023/12/08 05:40:13;;;;;;;18.45;13.77;;;;;;;3.35;66.84;100266.63;4452681;32;33847;-78
2023/12/08 05:42:45;;;;;;;20.37;14.20;;;;;;;3.28;67.04;100267.75;4452443;32;34491;-78
2023/12/08 05:45:14;;;;;;;21.15;14.23;;;;;;;3.39;66.66;100264.78;4453052;32;34743;-78
2023/12/08 05:47:45;;;;;;;21.10;16.00;;;;;;;3.22;67.11;100272.34;4452365;32;34811;-78
2023/12/08 05:50:16;;;;;;;20.20;14.73;;;;;;;3.33;67.00;100267.63;4437984;32;33094;-78
2023/12/08 05:52:45;;;;;;;21.73;16.87;;;;;;;3.36;67.01;100272.72;4452715;32;33735;-78
2023/12/08 05:55:15;;;;;;;22.98;18.20;;;;;;;3.45;66.73;100264.56;4450418;32;34628;-78
2023/12/08 05:57:44;;;;;;;24.15;16.45;;;;;;;3.45;66.74;100265.44;4452271;32;33905;-78
2023/12/08 06:00:17;;;;;;;25.48;18.95;;;;;;;3.53;66.42;100265.16;4452896;32;34532;-78
2023/12/08 06:02:51;;;;;;;23.30;18.48;;;;;;;3.51;66.40;100259.09;4452463;32;33916;-78
2023/12/08 06:05:21;;;;;;;24.37;18.37;;;;;;;3.48;66.38;100258.34;4438149;32;34251;-78
2023/12/08 06:07:50;;;;;;;24.73;18.02;;;;;;;3.66;65.75;100265.59;4452236;32;34442;-78
2023/12/08 06:10:19;;;;;;;24.40;17.33;;;;;;;3.62;65.41;100258.75;4438364;32;33936;-77
2023/12/08 06:12:49;;;;;;;21.52;17.17;;;;;;;3.46;65.79;100266.28;4452356;32;33880;-78
2023/12/08 06:15:18;;;;;;;24.40;17.00;;;;;;;3.40;65.92;100267.31;4436189;32;32118;-78
2023/12/08 06:17:47;;;;;;;20.85;16.62;;;;;;;3.45;65.66;100275.06;4452480;32;34205;-78
2023/12/08 06:20:18;;;;;;;25.17;17.62;;;;;;;3.40;65.69;100277.81;4452444;32;34079;-78
2023/12/08 06:22:47;;;;;;;21.25;15.73;;;;;;;3.24;65.85;100283.63;4452289;32;33892;-78
2023/12/08 06:25:19;;;;;;;22.33;14.65;;;;;;;3.58;64.65;100283.34;4452277;32;34204;-78
2023/12/08 06:27:49;;;;;;;21.75;14.82;;;;;;;3.35;64.97;100284.97;4452206;32;34691;-78
2023/12/08 06:30:18;;;;;;;24.10;17.02;;;;;;;3.01;66.35;100285.25;4438138;32;33482;-77
2023/12/08 06:32:49;;;;;;;23.52;16.50;;;;;;;3.04;66.51;100285.13;4452252;32;34023;-77
2023/12/08 06:35:20;;;;;;;21.02;15.38;;;;;;;3.13;66.56;100284.84;4450268;32;33688;-78
2023/12/08 06:37:50;;;;;;;21.37;13.90;;;;;;;3.04;66.97;100284.25;4452026;32;34998;-78
2023/12/08 06:40:19;;;;;;;20.70;15.68;;;;;;;3.23;66.56;100274.06;4451721;32;33913;-78
2023/12/08 06:42:50;;;;;;;21.17;14.80;;;;;;;3.14;66.96;100277.84;4452203;32;33981;-78
2023/12/08 06:45:21;;;;;;;30.50;23.33;;;;;;;3.20;67.00;100278.47;4452505;32;34828;-78
2023/12/08 06:47:51;;;;;;;29.35;22.95;;;;;;;3.39;66.52;100281.34;4451759;32;33925;-78
2023/12/08 06:50:21;;;;;;;24.20;18.67;;;;;;;3.22;67.10;100277.59;4452189;32;33076;-77
2023/12/08 06:52:51;;;;;;;27.05;18.62;;;;;;;3.27;67.22;100284.37;4452077;32;34067;-78
2023/12/08 06:55:21;;;;;;;23.40;17.73;;;;;;;3.34;66.94;100285.88;4435531;32;34161;-78
2023/12/08 06:57:50;;;;;;;27.87;18.10;;;;;;;3.39;66.96;100285.72;4451902;32;34433;-78
2023/12/08 07:00:20;;;;;;;29.58;20.60;;;;;;;3.44;66.79;100292.53;4438286;32;33115;-78
2023/12/08 07:02:51;;;;;;;23.48;16.10;;;;;;;3.38;66.81;100282.25;4451763;32;33933;-78
2023/12/08 07:05:25;;;;;;;27.45;19.42;;;;;;;3.40;66.46;100280.41;4452035;32;33865;-78
2023/12/08 07:07:56;;;;;;;22.08;16.67;;;;;;;3.53;66.35;100288.75;4451835;32;35228;-78
2023/12/08 07:10:25;;;;;;;23.45;16.45;;;;;;;3.62;66.16;100301.53;4451766;32;34182;-78
2023/12/08 07:12:54;;;;;;;21.62;14.65;;;;;;;3.52;66.29;100300.12;4437591;32;32587;-78
2023/12/08 07:15:24;;;;;;;21.50;14.57;;;;;;;3.47;66.29;100309.03;4436224;32;32696;-78
2023/12/08 07:17:54;;;;;;;18.50;13.93;;;;;;;3.12;67.17;100308.44;4451676;32;33567;-78
2023/12/08 07:20:23;;;;;;;16.87;13.43;;;;;;;3.33;66.75;100314.75;4451903;32;33523;-78
2023/12/08 07:22:53;;;;;;;21.73;13.75;;;;;;;3.27;66.93;100312.31;4451999;32;33925;-77
2023/12/08 07:25:24;;;;;;;20.95;13.68;;;;;;;3.32;67.06;100303.41;4451919;32;34197;-77
2023/12/08 07:27:54;;;;;;;19.98;14.65;;;;;;;3.40;67.04;100304.00;4451268;32;33727;-78
2023/12/08 07:30:23;;;;;;;23.73;19.42;;;;;;;3.52;66.97;100300.12;4452234;32;33527;-78
2023/12/08 07:32:52;;;;;;;24.48;18.17;;;;;;;3.48;67.10;100300.28;4451766;32;34642;-78
2023/12/08 07:35:22;;;;;;;26.10;23.40;;;;;;;3.59;66.94;100303.38;4449505;32;34524;-77
2023/12/08 07:37:55;;;;;;;24.10;19.00;;;;;;;3.60;66.92;100295.50;4451595;32;34650;-78
2023/12/08 07:40:24;;;;;;;27.02;19.30;;;;;;;3.44;67.43;100289.91;4451911;32;33335;-78
2023/12/08 07:42:54;;;;;;;25.20;19.15;;;;;;;3.68;66.85;100280.38;4451652;32;34433;-78
2023/12/08 07:45:26;;;;;;;23.98;19.23;;;;;;;3.84;66.42;100278.06;4452200;32;34038;-78
2023/12/08 07:47:55;;;;;;;24.87;18.65;;;;;;;3.88;66.32;100274.41;4451596;32;33628;-78
2023/12/08 07:50:25;;;;;;;24.00;17.75;;;;;;;4.20;65.35;100280.25;4451770;32;33046;-78
2023/12/08 07:52:55;;;;;;;24.02;17.48;;;;;;;4.41;63.85;100289.94;4450543;32;33738;-78
2023/12/08 07:55:28;;;;;;;27.30;18.27;;;;;;;3.98;65.18;100295.03;4449776;32;34156;-78
2023/12/08 07:57:57;;;;;;;25.65;19.12;;;;;;;4.13;65.27;100295.34;4451532;32;34835;-79
2023/12/08 08:00:27;;;;;;;26.95;17.65;;;;;;;4.09;65.62;100304.25;4452175;32;33005;-78
2023/12/08 08:02:57;;;;;;;25.58;18.92;;;;;;;4.22;65.45;100304.66;4437744;32;33145;-78
2023/12/08 08:05:32;;;;;;;27.37;20.33;;;;;;;4.21;65.31;100296.84;4437402;32;34490;-78
2023/12/08 08:08:03;;;;;;;27.95;18.95;;;;;;;4.19;65.78;100296.88;4451231;32;34372;-78
2023/12/08 08:10:33;;;;;;;27.23;18.33;;;;;;;4.29;65.67;100294.78;4451430;32;33488;-78
2023/12/08 08:13:03;;;;;;;29.00;20.50;;;;;;;4.43;65.54;100297.75;4451540;32;33957;-78
2023/12/08 08:15:33;;;;;;;31.52;23.92;;;;;;;4.41;65.55;100296.97;4435331;32;35317;-78
2023/12/08 08:18:02;;;;;;;34.28;26.00;;;;;;;4.52;65.31;100288.69;4451329;32;33977;-78
2023/12/08 08:20:32;;;;;;;38.35;29.70;;;;;;;4.80;64.70;100277.97;4451616;32;34249;-78
2023/12/08 08:23:03;;;;;;;46.17;29.87;;;;;;;4.66;64.99;100289.00;4451277;32;34293;-78
2023/12/08 08:25:32;;;;;;;41.05;30.25;;;;;;;4.68;64.82;100288.03;4451706;32;34867;-78
2023/12/08 08:28:02;;;;;;;44.70;31.35;;;;;;;4.69;64.84;100288.88;4451150;32;35324;-78
2023/12/08 08:30:32;;;;;;;42.20;29.02;;;;;;;4.68;65.12;100281.94;4437317;32;31924;-78
2023/12/08 08:33:02;;;;;;;41.95;30.02;;;;;;;4.79;64.93;100286.72;4451299;32;33692;-78
2023/12/08 08:35:31;;;;;;;41.42;30.27;;;;;;;4.60;65.42;100287.47;4449390;32;34912;-78
2023/12/08 08:38:01;;;;;;;37.45;27.95;;;;;;;4.71;65.23;100278.31;4451784;32;35093;-78
2023/12/08 08:40:32;;;;;;;34.80;24.05;;;;;;;4.84;64.99;100272.53;4451775;32;33081;-78
2023/12/08 08:43:01;;;;;;;37.63;23.38;;;;;;;4.79;64.97;100274.50;4451219;32;34595;-78
2023/12/08 08:45:32;;;;;;;42.58;26.27;;;;;;;4.87;64.83;100282.03;4437393;32;34310;-78
2023/12/08 08:48:03;;;;;;;35.38;25.35;;;;;;;4.93;64.98;100273.94;4450764;32;34099;-79
2023/12/08 08:50:33;;;;;;;41.85;25.35;;;;;;;4.67;65.13;100252.22;4451233;32;33423;-78
2023/12/08 08:53:16;;;;;;;35.40;24.67;;;;;;;4.56;65.84;100243.03;4451131;32;33636;-78
2023/12/08 08:55:47;;;;;;;40.53;28.42;;;;;;;4.76;65.23;100258.00;4444753;32;142934;-78
2023/12/08 08:58:16;;;;;;;37.17;27.92;;;;;;;5.09;64.31;100293.41;4451290;32;33806;-79
2023/12/08 09:00:48;;;;;;;40.12;28.08;;;;;;;4.93;64.44;100310.69;4451323;32;33170;-78
2023/12/08 09:03:18;;;;;;;36.00;27.27;;;;;;;4.93;64.60;100308.06;4451210;32;34763;-78
2023/12/08 09:05:48;;;;;;;35.90;27.52;;;;;;;4.85;64.86;100304.87;4451096;32;33650;-79
2023/12/08 09:08:17;;;;;;;37.53;26.20;;;;;;;5.00;64.76;100311.31;4450681;32;34009;-79
2023/12/08 09:10:50;;;;;;;41.90;29.92;;;;;;;5.17;64.23;100322.84;4450404;32;33824;-78
2023/12/08 09:13:20;;;;;;;40.80;28.48;;;;;;;5.06;64.54;100311.91;4450823;32;34588;-78
2023/12/08 09:15:51;;;;;;;35.25;26.33;;;;;;;5.07;64.65;100295.25;4449290;32;35285;-79
2023/12/08 09:18:20;;;;;;;39.53;27.37;;;;;;;4.92;65.32;100293.22;4450947;32;34031;-78
2023/12/08 09:20:49;;;;;;;46.97;30.30;;;;;;;4.98;65.32;100292.97;4450802;32;33725;-78
2023/12/08 09:23:19;;;;;;;43.42;31.37;;;;;;;5.03;65.26;100292.78;4450903;32;33931;-78
2023/12/08 09:25:50;;;;;;;48.47;31.08;;;;;;;5.09;65.09;100285.53;4450669;32;33911;-78
2023/12/08 09:28:19;;;;;;;44.05;31.23;;;;;;;5.02;65.49;100283.19;4450208;32;33980;-78
2023/12/08 09:30:49;;;;;;;43.55;32.15;;;;;;;5.11;65.16;100273.19;4450704;32;33244;-78
2023/12/08 09:33:17;;;;;;;46.55;30.42;;;;;;;5.27;64.68;100278.69;4450792;32;34057;-78
2023/12/08 09:35:52;;;;;;;46.58;34.75;;;;;;;5.34;64.48;100277.47;4448583;32;34101;-78
2023/12/08 09:38:21;;;;;;;41.67;31.45;;;;;;;5.22;64.83;100277.13;4450489;32;34510;-78
2023/12/08 09:41:04;;;;;;;51.05;34.88;;;;;;;4.88;65.75;100265.38;4450719;32;33491;-78
2023/12/08 09:43:39;;;;;;;43.08;33.88;;;;;;;5.19;65.17;100267.63;4450380;32;33658;-78
2023/12/08 09:46:09;;;;;;;39.33;28.42;;;;;;;5.36;64.77;100259.03;4450682;32;33560;-78
2023/12/08 09:48:41;;;;;;;37.90;30.12;;;;;;;5.40;64.44;100260.63;4436384;32;32477;-79
2023/12/08 09:51:13;;;;;;;39.60;29.92;;;;;;;5.40;64.37;100250.09;4450096;32;48938;-78
2023/12/08 09:53:45;;;;;;;53.15;31.65;;;;;;;5.34;64.35;100248.56;4450433;32;33963;-78
2023/12/08 09:56:18;;;;;;;48.10;28.48;;;;;;;5.34;64.28;100245.94;4434260;32;34145;-78
2023/12/08 09:58:48;;;;;;;43.70;30.62;;;;;;;5.34;64.31;100251.19;4449947;32;34243;-78
2023/12/08 10:01:17;;;;;;;34.42;27.02;;;;;;;5.02;64.73;100233.31;4450381;32;33631;-78
2023/12/08 10:03:47;;;;;;;39.05;28.58;;;;;;;5.37;64.00;100239.72;4450328;32;34168;-78
2023/12/08 10:06:16;;;;;;;41.28;27.52;;;;;;;5.29;64.37;100240.03;4450500;32;34040;-78
2023/12/08 10:08:46;;;;;;;35.78;25.75;;;;;;;4.95;65.21;100240.59;4449686;32;33903;-78
2023/12/08 10:11:17;;;;;;;40.90;29.08;;;;;;;5.22;64.64;100233.31;4449937;32;33159;-78
2023/12/08 10:13:47;;;;;;;39.47;31.02;;;;;;;4.86;65.75;100231.31;4450003;32;34866;-78
2023/12/08 10:16:17;;;;;;;43.92;28.30;;;;;;;4.79;65.95;100236.84;4448915;32;34286;-78
2023/12/08 10:18:45;;;;;;;43.58;30.62;;;;;;;4.88;65.82;100233.87;4452125;32;34006;-78
2023/12/08 10:21:16;;;;;;;37.67;29.02;;;;;;;5.05;65.75;100217.44;4452945;32;33194;-78
2023/12/08 10:23:47;;;;;;;45.63;30.40;;;;;;;4.91;65.81;100228.50;4452083;32;34085;-78
2023/12/08 10:26:18;;;;;;;39.30;30.10;;;;;;;4.07;68.15;100226.53;4437954;32;34534;-78
2023/12/08 10:28:48;;;;;;;43.20;30.67;;;;;;;4.26;67.80;100229.31;4452108;32;33648;-78
2023/12/08 10:31:18;;;;;;;41.67;32.28;;;;;;;4.19;68.15;100223.44;4437678;32;34594;-78
2023/12/08 10:33:48;;;;;;;45.17;33.50;;;;;;;4.47;67.74;100223.22;4452226;32;33963;-78
2023/12/08 10:36:19;;;;;;;40.80;31.50;;;;;;;4.75;66.87;100230.03;4450807;32;33485;-78
2023/12/08 10:38:52;;;;;;;43.70;33.42;;;;;;;4.43;67.46;100222.53;4451862;32;34470;-78
2023/12/08 10:41:23;;;;;;;41.90;33.45;;;;;;;4.96;66.19;100215.19;4452135;32;33425;-78
2023/12/08 10:43:52;;;;;;;46.22;32.95;;;;;;;4.90;66.28;100218.91;4452351;32;34446;-78
2023/12/08 10:46:27;;;;;;;44.97;32.88;;;;;;;4.67;66.79;100225.97;4451986;32;34069;-78
2023/12/08 10:48:58;;;;;;;42.25;32.70;;;;;;;4.85;66.40;100226.97;4451568;32;33921;-78
2023/12/08 10:51:28;;;;;;;49.03;35.85;;;;;;;4.92;66.32;100214.47;4452406;32;33840;-78
2023/12/08 10:53:59;;;;;;;48.53;34.78;;;;;;;5.23;65.53;100215.81;4451883;32;33677;-78
2023/12/08 10:56:34;;;;;;;43.90;33.42;;;;;;;5.08;65.74;100218.16;4450017;32;34832;-78
2023/12/08 10:59:08;;;;;;;65.03;50.03;;;;;;;5.13;65.44;100215.34;4451887;32;33841;-78
2023/12/08 11:01:39;;;;;;;46.83;35.85;;;;;;;5.20;65.52;100211.53;4452152;32;34138;-78
2023/12/08 11:04:11;;;;;;;48.40;35.33;;;;;;;5.16;65.35;100205.56;4451728;32;33997;-78
2023/12/08 11:06:48;;;;;;;52.80;36.22;;;;;;;5.14;65.22;100206.53;4452061;32;34087;-78
2023/12/08 11:09:20;;;;;;;50.33;37.63;;;;;;;5.13;65.50;100202.19;4452327;32;33748;-78
2023/12/08 11:11:53;;;;;;;;;;;;;;;5.07;65.20;100202.47;4451822;32;34386;-78
2023/12/08 11:14:33;;;;;;;49.40;36.85;;;;;;;5.34;64.70;100198.66;4449914;32;35132;-78
2023/12/08 11:17:06;;;;;;;49.03;33.03;;;;;;;5.29;65.02;100189.28;4451856;32;33952;-78
2023/12/08 11:19:38;;;;;;;47.47;33.78;;;;;;;5.15;64.88;100195.12;4445530;32;33718;-78
2023/12/08 11:22:08;;;;;;;46.17;34.72;;;;;;;5.06;64.86;100192.87;4451954;32;33445;-78
2023/12/08 11:24:38;;;;;;;49.20;38.38;;;;;;;5.32;64.36;100195.25;4452146;32;35022;-78
2023/12/08 11:27:19;;;;;;;42.40;31.17;;;;;;;4.82;65.18;100179.84;4451563;32;49313;-78
2023/12/08 11:29:59;;;;;;;45.10;33.40;;;;;;;4.85;65.12;100174.47;4451836;32;34040;-78
2023/12/08 11:32:33;;;;;;;45.97;32.95;;;;;;;4.93;65.14;100182.03;4451774;32;33660;-78